SBLOSBKP

Guest
Details From SBLO - Londrina
To SBKP - Sao Paulo Viracopos
Flight Number -
Tags decoded
Created
Modified
Stats Distance 221 nm / 410 km
Max Altitude 0 ft / 0 m
Waypoints 2
Social Downloads 0
Likes 0
Share VATSIM

Download

Looking for another format? Having issues loading an existing format? Contact us
Advertisement - Login to hide

Notes

Requested: SBLO UZ65 EDMOX UM411 PUPSI SBKP Unmatched points: UZ65 EDMOX UM411 PUPSI

Route

SBLO SBKP

ID Type Via Altitude (ft/m) Position (lat/lon) Dist (leg/tot) Name
O SBLO APT - 0 / 0 -23.33362 / -51.13007 - / 0 nm Londrina
O SBKP APT - 0 / 0 -23.00738 / -47.13452 221 / 221 nm Sao Paulo Viracopos

Altitude Profile

Advertisement - Login to hide

Weather


0- 5 10 15 20 25 30 35+ Temperature / °C

Clouds and Precipitation
Forecast for 2018-10-19 18:00 UTC. Updated 30 minutes ago

Ground ~20,000 ft ~40,000 ft Winds

SBLO

Details ICAO SBLO (LDB)
Name Governador Jose Richa Airport
Region Brazil
Timezone America/Sao_Paulo (UTC-3.0)
Stats Elevation 1,868 ft / 569 m (AMSL)
Location -23.333600° -51.130100°
Runways 1
Magnetic Variation 19.202° W

METAR

SBLO 191600Z 09007KT 9999 SCT035 28/19 Q1015

Decode

TAF

TAF SBLO 190930Z 1912/1924 00000KT CAVOK TX28/1918Z TN21/1924Z BECMG 1912/1914 10008KT 9999 SCT035 PROB30 TEMPO 1915/1918 VCSH SCT020 FEW030TCU RMK PCX

Decode

Departure Runways

ID Width Length Bearing (true/mag) Surface Threshold Overrun Markings Lighting
13 148 ft / 45 m 6,888 ft / 2,100 m 110.10° / 129.31° ASPHALT 1,083 ft / 330 m 0 ft / 0 m APP CENTERLINE EDGE THRESHOLD REIL-OMNI
31 148 ft / 45 m 6,888 ft / 2,100 m 290.10° / 309.30° ASPHALT 0 ft / 0 m 0 ft / 0 m APP CENTERLINE EDGE THRESHOLD REIL-OMNI

SBKP

Details ICAO SBKP (VCP)
Name Viracopos Intl
Region Brazil
Timezone America/Sao_Paulo (UTC-3.0)
Stats Elevation 2,169 ft / 661 m (AMSL)
Location -23.007400° -47.134500°
Runways 1
Magnetic Variation 21.302° W

METAR

SBKP 191600Z 18014KT 9999 BKN033 25/17 Q1015

Decode

TAF

TAF SBKP 190930Z 1912/2012 22013KT 8000 SCT030 TX25/1917Z TN17/2006Z PROB40 1915/1918 17010KT SHRA BKN030 FEW045TCU BECMG 1921/1923 15010KT SCT025 BECMG 2000/2002 NSC BECMG 2004/2006 CAVOK BECMG 2010/2012 14015KT RMK PHH

Decode

Destination Runways

ID Width Length Bearing (true/mag) Surface Threshold Overrun Markings Lighting
15 148 ft / 45 m 10,666 ft / 3,251 m 127.88° / 149.18° ASPHALT 0 ft / 0 m 171 ft / 52 m PREC-APP CENTERLINE EDGE THRESHOLD MALSR TDZ REIL-OMNI
33 148 ft / 45 m 10,666 ft / 3,251 m 307.87° / 329.17° ASPHALT 308 ft / 94 m 187 ft / 57 m PREC-APP CENTERLINE EDGE THRESHOLD TDZ REIL-OMNI

Approach Navaids

Runway Type Ident Frequency Range Bearing (true/mag) Slope Elevation
15 GS IKP 110.30 MHz 10 nm / 19 km 128.80° / 150.11 ° 3.00° 2,170 ft / 661 m (AMSL)
15 OM OM - - 127.90° / 149.20 ° - 2,170 ft / 661 m (AMSL)
15 LOC-ILS IKP 110.30 MHz 18 nm / 33 km 127.95° / 149.26 ° - 2,170 ft / 661 m (AMSL)
15 MM MM - - 127.90° / 149.20 ° - 2,170 ft / 661 m (AMSL)

Popular Alternatives